sensor_id;sensor_type;location;lat;lon;timestamp;P1;P2;P0
65574;PMS5003;73096;55.050;73.422;2024-02-28T00:02:59;20.00;19.00;12.00
65574;PMS5003;73096;55.050;73.422;2024-02-28T00:06:02;24.50;21.00;12.00
65574;PMS5003;73096;55.050;73.422;2024-02-28T00:09:04;24.00;20.00;12.75
65574;PMS5003;73096;55.050;73.422;2024-02-28T00:12:06;25.50;21.00;13.00
65574;PMS5003;73096;55.050;73.422;2024-02-28T00:15:08;24.00;22.00;14.00
65574;PMS5003;73096;55.050;73.422;2024-02-28T00:18:13;23.00;21.00;13.00
65574;PMS5003;73096;55.050;73.422;2024-02-28T00:21:15;23.00;22.00;13.00
65574;PMS5003;73096;55.050;73.422;2024-02-28T00:24:17;24.00;22.00;13.00
65574;PMS5003;73096;55.050;73.422;2024-02-28T00:27:20;24.25;22.00;14.00
65574;PMS5003;73096;55.050;73.422;2024-02-28T00:30:23;24.25;22.00;14.50
65574;PMS5003;73096;55.050;73.422;2024-02-28T00:33:25;25.25;22.00;14.00
65574;PMS5003;73096;55.050;73.422;2024-02-28T00:36:28;25.00;22.00;14.00
65574;PMS5003;73096;55.050;73.422;2024-02-28T00:39:31;24.50;22.00;14.00
65574;PMS5003;73096;55.050;73.422;2024-02-28T00:42:33;24.00;21.00;14.00
65574;PMS5003;73096;55.050;73.422;2024-02-28T00:45:36;25.00;22.00;14.00
65574;PMS5003;73096;55.050;73.422;2024-02-28T00:48:40;25.00;22.00;14.00
65574;PMS5003;73096;55.050;73.422;2024-02-28T00:51:42;22.00;20.75;12.00
65574;PMS5003;73096;55.050;73.422;2024-02-28T00:54:46;20.00;20.00;12.00
65574;PMS5003;73096;55.050;73.422;2024-02-28T00:57:50;20.00;19.00;12.00
65574;PMS5003;73096;55.050;73.422;2024-02-28T01:00:52;23.00;21.00;13.00
65574;PMS5003;73096;55.050;73.422;2024-02-28T01:03:55;23.00;21.00;13.00
65574;PMS5003;73096;55.050;73.422;2024-02-28T01:06:59;22.00;19.75;12.00
65574;PMS5003;73096;55.050;73.422;2024-02-28T01:10:02;22.00;19.75;12.00
65574;PMS5003;73096;55.050;73.422;2024-02-28T01:13:06;21.00;19.75;12.75
65574;PMS5003;73096;55.050;73.422;2024-02-28T01:16:10;19.00;18.00;13.00
65574;PMS5003;73096;55.050;73.422;2024-02-28T01:19:13;19.50;19.50;12.00
65574;PMS5003;73096;55.050;73.422;2024-02-28T01:22:16;21.00;20.00;13.00
65574;PMS5003;73096;55.050;73.422;2024-02-28T01:25:18;21.50;20.00;12.00
65574;PMS5003;73096;55.050;73.422;2024-02-28T01:28:20;23.00;22.00;13.00
65574;PMS5003;73096;55.050;73.422;2024-02-28T01:31:24;22.00;21.00;12.33
65574;PMS5003;73096;55.050;73.422;2024-02-28T01:34:26;24.75;22.00;13.00
65574;PMS5003;73096;55.050;73.422;2024-02-28T01:37:29;25.00;21.50;13.00
65574;PMS5003;73096;55.050;73.422;2024-02-28T01:40:32;25.00;22.00;14.00
65574;PMS5003;73096;55.050;73.422;2024-02-28T01:43:35;24.75;22.00;14.25
65574;PMS5003;73096;55.050;73.422;2024-02-28T01:46:37;26.50;23.00;15.00
65574;PMS5003;73096;55.050;73.422;2024-02-28T01:49:40;26.00;23.00;15.00
65574;PMS5003;73096;55.050;73.422;2024-02-28T01:52:45;25.00;22.00;14.00
65574;PMS5003;73096;55.050;73.422;2024-02-28T01:55:47;27.00;23.00;14.00
65574;PMS5003;73096;55.050;73.422;2024-02-28T01:58:51;29.00;24.00;15.00
65574;PMS5003;73096;55.050;73.422;2024-02-28T02:01:54;28.00;23.00;15.00
65574;PMS5003;73096;55.050;73.422;2024-02-28T02:04:57;28.00;23.00;15.00
65574;PMS5003;73096;55.050;73.422;2024-02-28T02:08:01;26.25;22.00;14.75
65574;PMS5003;73096;55.050;73.422;2024-02-28T02:11:03;29.00;23.00;14.00
65574;PMS5003;73096;55.050;73.422;2024-02-28T02:14:06;29.00;23.00;14.00
65574;PMS5003;73096;55.050;73.422;2024-02-28T02:17:08;27.00;23.00;16.00
65574;PMS5003;73096;55.050;73.422;2024-02-28T02:20:11;28.00;23.00;15.00
65574;PMS5003;73096;55.050;73.422;2024-02-28T02:23:16;29.00;24.00;16.00
65574;PMS5003;73096;55.050;73.422;2024-02-28T02:26:19;30.00;25.00;16.00
65574;PMS5003;73096;55.050;73.422;2024-02-28T02:29:21;33.00;25.00;17.00
65574;PMS5003;73096;55.050;73.422;2024-02-28T02:32:23;33.50;27.00;18.00
65574;PMS5003;73096;55.050;73.422;2024-02-28T02:35:27;35.00;28.00;19.00
65574;PMS5003;73096;55.050;73.422;2024-02-28T02:38:29;37.00;29.50;19.50
65574;PMS5003;73096;55.050;73.422;2024-02-28T02:41:32;35.00;29.00;19.00
65574;PMS5003;73096;55.050;73.422;2024-02-28T02:44:34;32.00;27.00;18.00
65574;PMS5003;73096;55.050;73.422;2024-02-28T02:47:38;33.00;27.00;18.00
65574;PMS5003;73096;55.050;73.422;2024-02-28T02:50:40;32.50;26.50;17.00
65574;PMS5003;73096;55.050;73.422;2024-02-28T02:53:42;32.00;27.00;18.00
65574;PMS5003;73096;55.050;73.422;2024-02-28T02:56:45;33.33;27.00;17.67
65574;PMS5003;73096;55.050;73.422;2024-02-28T02:59:49;30.00;25.00;17.00
65574;PMS5003;73096;55.050;73.422;2024-02-28T03:02:51;30.00;25.00;16.00
65574;PMS5003;73096;55.050;73.422;2024-02-28T03:05:54;29.50;24.50;16.00
65574;PMS5003;73096;55.050;73.422;2024-02-28T03:08:56;30.33;24.67;16.00
65574;PMS5003;73096;55.050;73.422;2024-02-28T03:11:59;32.00;25.00;17.00
65574;PMS5003;73096;55.050;73.422;2024-02-28T03:15:03;28.33;23.00;15.00
65574;PMS5003;73096;55.050;73.422;2024-02-28T03:18:06;26.50;22.00;15.00
65574;PMS5003;73096;55.050;73.422;2024-02-28T03:21:09;23.00;21.00;14.75
65574;PMS5003;73096;55.050;73.422;2024-02-28T03:24:11;22.00;21.00;14.00
65574;PMS5003;73096;55.050;73.422;2024-02-28T03:27:14;22.00;20.00;14.00
65574;PMS5003;73096;55.050;73.422;2024-02-28T03:30:16;22.00;20.00;15.00
65574;PMS5003;73096;55.050;73.422;2024-02-28T03:33:18;22.00;20.00;13.50
65574;PMS5003;73096;55.050;73.422;2024-02-28T03:36:21;21.00;21.00;14.00
65574;PMS5003;73096;55.050;73.422;2024-02-28T03:39:23;24.00;21.33;14.00
65574;PMS5003;73096;55.050;73.422;2024-02-28T03:42:26;25.00;22.00;14.00
65574;PMS5003;73096;55.050;73.422;2024-02-28T03:45:28;25.00;22.00;14.00
65574;PMS5003;73096;55.050;73.422;2024-02-28T03:48:33;24.00;22.00;14.00
65574;PMS5003;73096;55.050;73.422;2024-02-28T03:51:40;23.33;21.00;14.00
65574;PMS5003;73096;55.050;73.422;2024-02-28T03:54:43;27.00;21.00;13.00
65574;PMS5003;73096;55.050;73.422;2024-02-28T03:57:48;25.75;22.00;14.50
65574;PMS5003;73096;55.050;73.422;2024-02-28T04:00:54;22.00;22.00;15.00
65574;PMS5003;73096;55.050;73.422;2024-02-28T04:03:57;22.00;21.00;14.00
65574;PMS5003;73096;55.050;73.422;2024-02-28T04:07:00;22.00;20.00;14.00
65574;PMS5003;73096;55.050;73.422;2024-02-28T04:10:02;24.00;22.00;13.00
65574;PMS5003;73096;55.050;73.422;2024-02-28T04:13:08;23.33;20.00;11.00
65574;PMS5003;73096;55.050;73.422;2024-02-28T04:16:11;20.75;20.25;12.00
65574;PMS5003;73096;55.050;73.422;2024-02-28T04:19:13;19.00;17.75;11.00
65574;PMS5003;73096;55.050;73.422;2024-02-28T04:22:15;19.00;18.00;11.00
65574;PMS5003;73096;55.050;73.422;2024-02-28T04:25:19;18.75;18.75;12.00
65574;PMS5003;73096;55.050;73.422;2024-02-28T04:28:22;19.00;16.67;13.00
65574;PMS5003;73096;55.050;73.422;2024-02-28T04:31:24;18.50;17.00;13.00
65574;PMS5003;73096;55.050;73.422;2024-02-28T04:34:28;19.00;18.00;12.00
65574;PMS5003;73096;55.050;73.422;2024-02-28T04:37:31;21.50;19.00;13.00
65574;PMS5003;73096;55.050;73.422;2024-02-28T04:40:33;22.00;19.50;13.00
65574;PMS5003;73096;55.050;73.422;2024-02-28T04:43:35;21.00;19.00;14.00
65574;PMS5003;73096;55.050;73.422;2024-02-28T04:46:39;21.00;18.00;14.00
65574;PMS5003;73096;55.050;73.422;2024-02-28T04:49:41;21.75;18.50;13.00
65574;PMS5003;73096;55.050;73.422;2024-02-28T04:52:44;23.33;21.00;13.00
65574;PMS5003;73096;55.050;73.422;2024-02-28T04:55:48;20.25;19.50;13.00
65574;PMS5003;73096;55.050;73.422;2024-02-28T04:58:51;22.00;20.75;13.00
65574;PMS5003;73096;55.050;73.422;2024-02-28T05:01:53;21.00;20.00;13.00
65574;PMS5003;73096;55.050;73.422;2024-02-28T05:04:55;24.00;21.00;13.00
65574;PMS5003;73096;55.050;73.422;2024-02-28T05:08:00;25.00;20.00;14.00
65574;PMS5003;73096;55.050;73.422;2024-02-28T05:11:05;24.00;21.00;14.00
65574;PMS5003;73096;55.050;73.422;2024-02-28T05:14:08;22.50;19.00;13.00
65574;PMS5003;73096;55.050;73.422;2024-02-28T05:17:13;24.00;21.00;13.00
65574;PMS5003;73096;55.050;73.422;2024-02-28T05:20:15;23.00;21.00;14.00
65574;PMS5003;73096;55.050;73.422;2024-02-28T05:23:17;25.00;21.00;14.00
65574;PMS5003;73096;55.050;73.422;2024-02-28T05:26:20;25.50;20.25;15.00
65574;PMS5003;73096;55.050;73.422;2024-02-28T05:29:23;27.67;22.00;15.00
65574;PMS5003;73096;55.050;73.422;2024-02-28T05:32:26;25.00;21.00;14.00
65574;PMS5003;73096;55.050;73.422;2024-02-28T05:35:29;24.50;21.00;14.00
65574;PMS5003;73096;55.050;73.422;2024-02-28T05:38:32;24.00;22.00;14.00
65574;PMS5003;73096;55.050;73.422;2024-02-28T05:41:35;23.00;22.00;14.00
65574;PMS5003;73096;55.050;73.422;2024-02-28T05:44:38;24.00;22.00;14.00
65574;PMS5003;73096;55.050;73.422;2024-02-28T05:47:41;23.25;22.00;14.00
65574;PMS5003;73096;55.050;73.422;2024-02-28T05:50:43;23.00;21.00;14.00
65574;PMS5003;73096;55.050;73.422;2024-02-28T05:53:45;22.00;20.00;12.00
65574;PMS5003;73096;55.050;73.422;2024-02-28T05:56:51;20.00;17.00;10.00
65574;PMS5003;73096;55.050;73.422;2024-02-28T05:59:54;20.00;19.00;10.00
65574;PMS5003;73096;55.050;73.422;2024-02-28T06:02:58;20.00;19.00;11.00
65574;PMS5003;73096;55.050;73.422;2024-02-28T06:06:00;20.75;18.00;10.00
65574;PMS5003;73096;55.050;73.422;2024-02-28T06:09:02;20.00;16.50;11.00
65574;PMS5003;73096;55.050;73.422;2024-02-28T06:12:06;21.75;19.00;11.75
65574;PMS5003;73096;55.050;73.422;2024-02-28T06:15:09;21.00;19.00;11.00
65574;PMS5003;73096;55.050;73.422;2024-02-28T06:18:13;20.00;17.75;9.00
65574;PMS5003;73096;55.050;73.422;2024-02-28T06:21:16;20.50;18.00;11.50
65574;PMS5003;73096;55.050;73.422;2024-02-28T06:24:19;21.00;20.00;13.00
65574;PMS5003;73096;55.050;73.422;2024-02-28T06:27:22;19.00;18.00;12.00
65574;PMS5003;73096;55.050;73.422;2024-02-28T06:30:27;21.00;18.00;12.00
65574;PMS5003;73096;55.050;73.422;2024-02-28T06:33:32;21.00;19.00;11.00
65574;PMS5003;73096;55.050;73.422;2024-02-28T06:36:34;22.25;19.50;10.00
65574;PMS5003;73096;55.050;73.422;2024-02-28T06:39:37;20.00;17.67;10.33
65574;PMS5003;73096;55.050;73.422;2024-02-28T06:42:40;20.00;19.00;11.00
65574;PMS5003;73096;55.050;73.422;2024-02-28T06:45:43;20.75;20.00;11.50
65574;PMS5003;73096;55.050;73.422;2024-02-28T06:48:46;20.67;19.00;13.00
65574;PMS5003;73096;55.050;73.422;2024-02-28T06:51:48;21.00;19.75;13.00
65574;PMS5003;73096;55.050;73.422;2024-02-28T06:54:50;20.00;18.00;11.00
65574;PMS5003;73096;55.050;73.422;2024-02-28T06:57:54;16.00;15.33;8.00
65574;PMS5003;73096;55.050;73.422;2024-02-28T07:00:56;18.25;15.00;8.00
65574;PMS5003;73096;55.050;73.422;2024-02-28T07:03:59;18.00;17.00;8.00
65574;PMS5003;73096;55.050;73.422;2024-02-28T07:07:01;17.00;15.00;7.00
65574;PMS5003;73096;55.050;73.422;2024-02-28T07:10:03;16.67;15.00;8.00
65574;PMS5003;73096;55.050;73.422;2024-02-28T07:13:07;16.50;15.75;8.00
65574;PMS5003;73096;55.050;73.422;2024-02-28T07:16:09;17.00;16.50;9.00
65574;PMS5003;73096;55.050;73.422;2024-02-28T07:19:12;16.00;14.00;8.00
65574;PMS5003;73096;55.050;73.422;2024-02-28T07:22:17;15.75;15.25;7.50
65574;PMS5003;73096;55.050;73.422;2024-02-28T07:25:19;17.67;16.33;7.33
65574;PMS5003;73096;55.050;73.422;2024-02-28T07:28:22;17.00;16.00;7.00
65574;PMS5003;73096;55.050;73.422;2024-02-28T07:31:25;19.25;16.50;6.00
65574;PMS5003;73096;55.050;73.422;2024-02-28T07:34:27;16.00;16.00;7.00
65574;PMS5003;73096;55.050;73.422;2024-02-28T07:37:29;16.00;16.00;8.00
65574;PMS5003;73096;55.050;73.422;2024-02-28T07:40:32;17.00;16.00;7.75
65574;PMS5003;73096;55.050;73.422;2024-02-28T07:43:34;16.00;15.25;7.00
65574;PMS5003;73096;55.050;73.422;2024-02-28T07:46:41;16.75;15.00;7.00
65574;PMS5003;73096;55.050;73.422;2024-02-28T07:49:45;16.75;15.25;7.25
65574;PMS5003;73096;55.050;73.422;2024-02-28T07:52:47;18.50;16.00;7.00
65574;PMS5003;73096;55.050;73.422;2024-02-28T07:55:49;18.00;16.50;8.25
65574;PMS5003;73096;55.050;73.422;2024-02-28T07:58:52;18.00;16.00;9.00
65574;PMS5003;73096;55.050;73.422;2024-02-28T08:01:55;18.25;16.00;9.25
65574;PMS5003;73096;55.050;73.422;2024-02-28T08:04:57;17.50;15.25;8.00
65574;PMS5003;73096;55.050;73.422;2024-02-28T08:07:59;18.67;15.00;7.00
65574;PMS5003;73096;55.050;73.422;2024-02-28T08:11:02;19.00;18.00;7.25
65574;PMS5003;73096;55.050;73.422;2024-02-28T08:14:06;19.00;17.00;8.00
65574;PMS5003;73096;55.050;73.422;2024-02-28T08:17:09;18.00;16.33;8.00
65574;PMS5003;73096;55.050;73.422;2024-02-28T08:20:12;20.67;17.00;9.00
65574;PMS5003;73096;55.050;73.422;2024-02-28T08:23:17;17.67;16.00;8.67
65574;PMS5003;73096;55.050;73.422;2024-02-28T08:26:20;17.00;15.00;8.00
65574;PMS5003;73096;55.050;73.422;2024-02-28T08:29:23;15.50;14.00;6.00
65574;PMS5003;73096;55.050;73.422;2024-02-28T08:32:26;16.00;14.75;7.00
65574;PMS5003;73096;55.050;73.422;2024-02-28T08:35:29;18.50;17.00;8.00
65574;PMS5003;73096;55.050;73.422;2024-02-28T08:38:32;17.00;16.25;8.00
65574;PMS5003;73096;55.050;73.422;2024-02-28T08:41:35;14.75;14.00;5.00
65574;PMS5003;73096;55.050;73.422;2024-02-28T08:44:38;16.75;14.75;6.25
65574;PMS5003;73096;55.050;73.422;2024-02-28T08:47:41;17.50;17.00;7.00
65574;PMS5003;73096;55.050;73.422;2024-02-28T08:50:43;17.50;16.00;7.50
65574;PMS5003;73096;55.050;73.422;2024-02-28T08:53:46;17.00;16.00;8.00
65574;PMS5003;73096;55.050;73.422;2024-02-28T08:56:49;18.00;15.50;9.00
65574;PMS5003;73096;55.050;73.422;2024-02-28T08:59:52;15.00;14.75;6.00
65574;PMS5003;73096;55.050;73.422;2024-02-28T09:02:55;15.25;14.75;5.75
65574;PMS5003;73096;55.050;73.422;2024-02-28T09:05:59;16.00;15.00;7.50
65574;PMS5003;73096;55.050;73.422;2024-02-28T09:09:02;16.50;15.50;8.00
65574;PMS5003;73096;55.050;73.422;2024-02-28T09:12:06;18.00;17.67;11.00
65574;PMS5003;73096;55.050;73.422;2024-02-28T09:15:08;18.00;15.00;9.00
65574;PMS5003;73096;55.050;73.422;2024-02-28T09:18:17;17.00;14.67;6.00
65574;PMS5003;73096;55.050;73.422;2024-02-28T09:21:20;17.25;15.00;7.00
65574;PMS5003;73096;55.050;73.422;2024-02-28T09:24:24;16.00;14.00;6.00
65574;PMS5003;73096;55.050;73.422;2024-02-28T09:27:27;16.00;15.00;7.00
65574;PMS5003;73096;55.050;73.422;2024-02-28T09:30:30;16.00;13.50;5.75
65574;PMS5003;73096;55.050;73.422;2024-02-28T09:33:33;18.00;15.00;7.67
65574;PMS5003;73096;55.050;73.422;2024-02-28T09:36:42;16.00;16.00;7.00
65574;PMS5003;73096;55.050;73.422;2024-02-28T09:39:49;19.00;17.75;9.00
65574;PMS5003;73096;55.050;73.422;2024-02-28T09:42:52;19.00;19.00;12.00
65574;PMS5003;73096;55.050;73.422;2024-02-28T09:46:04;18.00;17.67;10.00
65574;PMS5003;73096;55.050;73.422;2024-02-28T09:49:07;19.00;17.00;10.00
65574;PMS5003;73096;55.050;73.422;2024-02-28T09:52:11;20.00;18.00;11.00
65574;PMS5003;73096;55.050;73.422;2024-02-28T09:55:14;19.33;17.00;10.00
65574;PMS5003;73096;55.050;73.422;2024-02-28T09:58:18;19.00;17.75;10.00
65574;PMS5003;73096;55.050;73.422;2024-02-28T10:01:21;18.25;18.00;8.25
65574;PMS5003;73096;55.050;73.422;2024-02-28T10:04:25;18.25;17.00;8.50
65574;PMS5003;73096;55.050;73.422;2024-02-28T10:07:29;18.00;17.00;9.00
65574;PMS5003;73096;55.050;73.422;2024-02-28T10:10:31;16.00;14.75;6.25
65574;PMS5003;73096;55.050;73.422;2024-02-28T10:13:35;17.50;15.00;7.25
65574;PMS5003;73096;55.050;73.422;2024-02-28T10:16:38;18.00;16.00;7.00
65574;PMS5003;73096;55.050;73.422;2024-02-28T10:19:41;16.00;14.00;6.00
65574;PMS5003;73096;55.050;73.422;2024-02-28T10:22:44;14.75;14.75;7.00
65574;PMS5003;73096;55.050;73.422;2024-02-28T10:25:48;16.00;16.00;7.00
65574;PMS5003;73096;55.050;73.422;2024-02-28T10:28:51;15.75;15.00;7.00
65574;PMS5003;73096;55.050;73.422;2024-02-28T10:31:55;17.00;16.00;8.00
65574;PMS5003;73096;55.050;73.422;2024-02-28T10:34:58;16.33;15.00;7.00
65574;PMS5003;73096;55.050;73.422;2024-02-28T10:38:00;18.00;16.00;7.67
65574;PMS5003;73096;55.050;73.422;2024-02-28T10:41:02;18.00;15.67;8.00
65574;PMS5003;73096;55.050;73.422;2024-02-28T10:44:06;18.67;17.00;9.00
65574;PMS5003;73096;55.050;73.422;2024-02-28T10:47:10;19.00;15.25;7.50
65574;PMS5003;73096;55.050;73.422;2024-02-28T10:50:13;16.25;16.00;8.00
65574;PMS5003;73096;55.050;73.422;2024-02-28T10:53:20;16.00;13.00;6.50
65574;PMS5003;73096;55.050;73.422;2024-02-28T10:56:23;15.00;14.00;5.25
65574;PMS5003;73096;55.050;73.422;2024-02-28T10:59:28;16.00;14.00;6.00
65574;PMS5003;73096;55.050;73.422;2024-02-28T11:02:32;16.75;14.75;6.00
65574;PMS5003;73096;55.050;73.422;2024-02-28T11:05:36;16.00;14.67;6.00
65574;PMS5003;73096;55.050;73.422;2024-02-28T11:08:40;16.75;13.75;7.00
65574;PMS5003;73096;55.050;73.422;2024-02-28T11:11:44;16.00;16.00;7.75
65574;PMS5003;73096;55.050;73.422;2024-02-28T11:14:55;16.00;16.00;7.67
65574;PMS5003;73096;55.050;73.422;2024-02-28T11:18:07;15.00;14.00;6.00
65574;PMS5003;73096;55.050;73.422;2024-02-28T11:21:15;15.00;13.50;6.00
65574;PMS5003;73096;55.050;73.422;2024-02-28T11:24:18;16.00;15.50;7.50
65574;PMS5003;73096;55.050;73.422;2024-02-28T11:27:21;18.00;17.00;7.00
65574;PMS5003;73096;55.050;73.422;2024-02-28T11:30:25;17.00;16.00;7.00
65574;PMS5003;73096;55.050;73.422;2024-02-28T11:33:29;17.33;17.33;7.00
65574;PMS5003;73096;55.050;73.422;2024-02-28T11:36:31;17.00;16.00;7.00
65574;PMS5003;73096;55.050;73.422;2024-02-28T11:39:35;15.00;14.00;5.00
65574;PMS5003;73096;55.050;73.422;2024-02-28T11:42:38;14.00;14.00;6.00
65574;PMS5003;73096;55.050;73.422;2024-02-28T11:45:42;17.00;15.00;7.00
65574;PMS5003;73096;55.050;73.422;2024-02-28T11:48:46;20.00;17.67;11.00
65574;PMS5003;73096;55.050;73.422;2024-02-28T11:51:50;20.00;18.00;11.00
65574;PMS5003;73096;55.050;73.422;2024-02-28T11:54:52;22.00;20.50;11.00
65574;PMS5003;73096;55.050;73.422;2024-02-28T11:57:55;20.25;18.00;11.00
65574;PMS5003;73096;55.050;73.422;2024-02-28T12:00:57;19.00;17.67;10.00
65574;PMS5003;73096;55.050;73.422;2024-02-28T12:03:59;19.00;18.00;9.67
65574;PMS5003;73096;55.050;73.422;2024-02-28T12:07:03;17.00;17.00;8.33
65574;PMS5003;73096;55.050;73.422;2024-02-28T12:10:06;17.00;15.00;8.00
65574;PMS5003;73096;55.050;73.422;2024-02-28T12:13:11;16.50;14.75;8.00
65574;PMS5003;73096;55.050;73.422;2024-02-28T12:16:21;17.00;14.50;8.00
65574;PMS5003;73096;55.050;73.422;2024-02-28T12:19:24;17.00;15.00;6.00
65574;PMS5003;73096;55.050;73.422;2024-02-28T12:22:28;17.00;17.00;8.00
65574;PMS5003;73096;55.050;73.422;2024-02-28T12:25:31;19.00;16.33;10.67
65574;PMS5003;73096;55.050;73.422;2024-02-28T12:28:54;19.00;17.00;10.00
65574;PMS5003;73096;55.050;73.422;2024-02-28T12:31:56;17.75;15.50;7.25
65574;PMS5003;73096;55.050;73.422;2024-02-28T12:34:59;17.75;15.50;7.50
65574;PMS5003;73096;55.050;73.422;2024-02-28T12:38:02;17.33;16.67;8.00
65574;PMS5003;73096;55.050;73.422;2024-02-28T12:41:05;18.00;18.00;8.33
65574;PMS5003;73096;55.050;73.422;2024-02-28T12:44:09;20.00;17.67;10.00
65574;PMS5003;73096;55.050;73.422;2024-02-28T12:47:12;19.67;17.00;9.67
65574;PMS5003;73096;55.050;73.422;2024-02-28T12:50:16;18.67;16.33;10.33
65574;PMS5003;73096;55.050;73.422;2024-02-28T12:53:18;18.67;16.00;11.00
65574;PMS5003;73096;55.050;73.422;2024-02-28T12:56:34;18.50;16.00;10.00
65574;PMS5003;73096;55.050;73.422;2024-02-28T12:59:38;21.00;17.00;11.00
65574;PMS5003;73096;55.050;73.422;2024-02-28T13:02:43;18.00;16.00;9.00
65574;PMS5003;73096;55.050;73.422;2024-02-28T13:05:46;16.50;15.50;8.00
65574;PMS5003;73096;55.050;73.422;2024-02-28T13:08:49;19.00;15.50;8.75
65574;PMS5003;73096;55.050;73.422;2024-02-28T13:11:55;19.75;18.00;9.00
65574;PMS5003;73096;55.050;73.422;2024-02-28T13:14:58;21.75;19.00;12.00
65574;PMS5003;73096;55.050;73.422;2024-02-28T13:18:02;22.33;19.00;12.00
65574;PMS5003;73096;55.050;73.422;2024-02-28T13:21:10;21.00;18.75;10.25
65574;PMS5003;73096;55.050;73.422;2024-02-28T13:24:13;22.00;21.00;12.00
65574;PMS5003;73096;55.050;73.422;2024-02-28T13:27:17;21.00;20.00;13.50
65574;PMS5003;73096;55.050;73.422;2024-02-28T13:30:19;21.50;20.25;14.00
65574;PMS5003;73096;55.050;73.422;2024-02-28T13:33:21;26.00;21.00;14.00
65574;PMS5003;73096;55.050;73.422;2024-02-28T13:36:23;23.50;21.25;14.00
65574;PMS5003;73096;55.050;73.422;2024-02-28T13:39:26;27.00;23.00;14.00
65574;PMS5003;73096;55.050;73.422;2024-02-28T13:42:29;28.00;23.00;14.00
65574;PMS5003;73096;55.050;73.422;2024-02-28T13:45:37;28.00;23.75;14.00
65574;PMS5003;73096;55.050;73.422;2024-02-28T13:48:40;28.00;24.50;15.00
65574;PMS5003;73096;55.050;73.422;2024-02-28T13:51:43;29.00;23.00;14.00
65574;PMS5003;73096;55.050;73.422;2024-02-28T13:54:46;27.75;23.00;14.00
65574;PMS5003;73096;55.050;73.422;2024-02-28T13:57:49;28.00;23.50;14.00
65574;PMS5003;73096;55.050;73.422;2024-02-28T14:00:52;26.00;23.00;14.00
65574;PMS5003;73096;55.050;73.422;2024-02-28T14:03:55;26.00;22.00;14.00
65574;PMS5003;73096;55.050;73.422;2024-02-28T14:06:59;28.00;23.00;14.00
65574;PMS5003;73096;55.050;73.422;2024-02-28T14:10:01;23.75;20.50;13.00
65574;PMS5003;73096;55.050;73.422;2024-02-28T14:13:04;21.00;17.00;11.00
65574;PMS5003;73096;55.050;73.422;2024-02-28T14:16:07;21.00;18.00;11.00
65574;PMS5003;73096;55.050;73.422;2024-02-28T14:19:09;20.67;19.00;12.00
65574;PMS5003;73096;55.050;73.422;2024-02-28T14:22:12;21.00;18.67;12.00
65574;PMS5003;73096;55.050;73.422;2024-02-28T14:25:16;21.00;19.00;12.00
65574;PMS5003;73096;55.050;73.422;2024-02-28T14:28:21;19.33;16.00;10.00
65574;PMS5003;73096;55.050;73.422;2024-02-28T14:31:23;19.00;17.50;9.00
65574;PMS5003;73096;55.050;73.422;2024-02-28T14:34:27;18.00;16.75;7.75
65574;PMS5003;73096;55.050;73.422;2024-02-28T14:37:36;17.67;15.00;6.00
65574;PMS5003;73096;55.050;73.422;2024-02-28T14:40:38;16.50;14.00;6.00
65574;PMS5003;73096;55.050;73.422;2024-02-28T14:43:42;13.00;13.00;5.00
65574;PMS5003;73096;55.050;73.422;2024-02-28T14:46:45;17.00;14.00;6.75
65574;PMS5003;73096;55.050;73.422;2024-02-28T14:49:49;17.00;15.50;6.75
65574;PMS5003;73096;55.050;73.422;2024-02-28T14:52:51;18.00;16.00;7.00
65574;PMS5003;73096;55.050;73.422;2024-02-28T14:55:54;18.00;15.67;6.00
65574;PMS5003;73096;55.050;73.422;2024-02-28T14:58:58;16.00;14.00;6.00
65574;PMS5003;73096;55.050;73.422;2024-02-28T15:02:02;13.25;13.00;5.00
65574;PMS5003;73096;55.050;73.422;2024-02-28T15:05:07;10.00;10.00;3.00
65574;PMS5003;73096;55.050;73.422;2024-02-28T15:08:10;9.00;8.75;4.00
65574;PMS5003;73096;55.050;73.422;2024-02-28T15:11:14;10.75;8.75;4.50
65574;PMS5003;73096;55.050;73.422;2024-02-28T15:14:17;13.00;12.00;5.00
65574;PMS5003;73096;55.050;73.422;2024-02-28T15:17:21;14.75;13.00;4.25
65574;PMS5003;73096;55.050;73.422;2024-02-28T15:20:24;13.25;12.50;6.00
65574;PMS5003;73096;55.050;73.422;2024-02-28T15:23:29;12.25;11.50;4.00
65574;PMS5003;73096;55.050;73.422;2024-02-28T15:26:32;13.00;12.75;4.25
65574;PMS5003;73096;55.050;73.422;2024-02-28T15:29:35;13.00;11.00;4.00
65574;PMS5003;73096;55.050;73.422;2024-02-28T15:32:38;12.00;12.00;4.25
65574;PMS5003;73096;55.050;73.422;2024-02-28T15:35:42;13.00;13.00;5.00
65574;PMS5003;73096;55.050;73.422;2024-02-28T15:38:44;14.75;13.75;6.50
65574;PMS5003;73096;55.050;73.422;2024-02-28T15:41:48;16.50;16.00;7.00
65574;PMS5003;73096;55.050;73.422;2024-02-28T15:44:51;19.00;17.00;10.00
65574;PMS5003;73096;55.050;73.422;2024-02-28T15:47:55;20.00;18.33;8.67
65574;PMS5003;73096;55.050;73.422;2024-02-28T15:50:57;16.50;15.50;7.00
65574;PMS5003;73096;55.050;73.422;2024-02-28T15:54:01;15.00;12.75;5.00
65574;PMS5003;73096;55.050;73.422;2024-02-28T15:57:04;13.75;11.00;5.00
65574;PMS5003;73096;55.050;73.422;2024-02-28T16:00:08;12.00;11.00;5.00
65574;PMS5003;73096;55.050;73.422;2024-02-28T16:03:25;13.00;12.00;6.00
65574;PMS5003;73096;55.050;73.422;2024-02-28T16:06:28;11.75;10.50;4.00
65574;PMS5003;73096;55.050;73.422;2024-02-28T16:09:32;14.00;13.50;5.50
65574;PMS5003;73096;55.050;73.422;2024-02-28T16:12:35;13.75;11.00;4.00
65574;PMS5003;73096;55.050;73.422;2024-02-28T16:15:45;12.00;11.00;4.00
65574;PMS5003;73096;55.050;73.422;2024-02-28T16:18:49;13.00;11.00;4.00
65574;PMS5003;73096;55.050;73.422;2024-02-28T16:21:53;13.75;12.00;4.00
65574;PMS5003;73096;55.050;73.422;2024-02-28T16:24:59;12.00;10.00;3.50
65574;PMS5003;73096;55.050;73.422;2024-02-28T16:28:02;12.50;9.00;4.00
65574;PMS5003;73096;55.050;73.422;2024-02-28T16:31:04;11.00;10.00;5.67
65574;PMS5003;73096;55.050;73.422;2024-02-28T16:34:08;11.00;8.25;4.00
65574;PMS5003;73096;55.050;73.422;2024-02-28T16:37:12;11.00;9.00;4.00
65574;PMS5003;73096;55.050;73.422;2024-02-28T16:40:16;10.00;7.00;4.00
65574;PMS5003;73096;55.050;73.422;2024-02-28T16:43:20;9.00;7.00;3.00
65574;PMS5003;73096;55.050;73.422;2024-02-28T16:46:22;11.00;9.00;3.00
65574;PMS5003;73096;55.050;73.422;2024-02-28T16:49:24;11.00;9.00;2.75
65574;PMS5003;73096;55.050;73.422;2024-02-28T16:52:30;10.25;7.75;4.00
65574;PMS5003;73096;55.050;73.422;2024-02-28T16:55:34;11.50;8.75;4.00
65574;PMS5003;73096;55.050;73.422;2024-02-28T16:58:37;7.75;5.50;2.00
65574;PMS5003;73096;55.050;73.422;2024-02-28T17:01:43;10.00;8.00;4.00